Date,TemperatureHighF,TemperatureAvgF,TemperatureLowF,DewpointHighF,DewpointAvgF,DewpointLowF,HumidityHigh,HumidityAvg,HumidityLow,PressureMaxIn,PressureMinIn,WindSpeedMaxMPH,WindSpeedAvgMPH,GustSpeedMaxMPH,PrecipitationSumIn
2013-3-1,63,58,52,49,44,37,72,61,49,30.00,29.90,14,4,15,0.00
2013-3-2,59,54,46,43,40,36,80,61,50,30.06,29.96,17,5,20,0.01
2013-3-3,55,48,42,40,35,29,71,62,52,30.14,29.97,17,4,18,0.00
2013-3-4,63,52,42,42,36,29,90,57,38,30.21,30.10,10,2,12,0.00
2013-3-5,77,60,41,61,51,39,94,75,47,30.14,30.01,11,1,14,0.00
2013-3-6,66,59,52,64,47,39,94,66,47,30.12,29.94,19,6,22,0.04
2013-3-7,63,52,44,46,39,33,92,62,36,30.20,30.11,11,2,14,0.00
2013-3-8,71,57,44,50,45,39,95,70,33,30.21,30.10,9,2,11,0.00
2013-3-9,76,61,48,54,49,44,92,67,34,30.19,30.10,9,2,9,0.00
2013-3-10,81,67,57,58,55,52,89,69,43,30.13,30.01,10,3,14,0.00
2013-3-11,81,69,60,62,59,57,90,72,47,30.07,29.84,10,3,13,0.00
2013-3-12,69,64,58,66,59,51,95,84,71,30.03,29.82,14,4,14,0.28
2013-3-13,69,62,56,53,46,32,79,59,28,30.17,30.02,13,4,20,0.00
2013-3-14,62,57,50,52,39,25,78,53,26,30.26,30.15,14,4,17,0.00
2013-3-15,70,56,41,48,42,32,95,63,26,30.27,30.15,11,2,11,0.00
2013-3-16,79,61,46,58,49,40,96,70,26,30.17,30.05,11,1,11,0.00
2013-3-17,80,64,50,61,56,49,96,78,51,30.11,29.97,9,1,9,0.01
2013-3-18,75,68,62,68,63,59,92,85,75,30.01,29.84,9,2,14,0.00
2013-3-19,87,70,62,67,64,61,96,81,48,29.98,29.87,10,2,14,0.00
2013-3-20,73,66,58,67,62,56,95,89,71,29.95,29.78,14,2,15,0.18
2013-3-21,68,59,48,58,44,32,95,62,29,29.97,29.86,11,2,13,0.00
2013-3-22,78,62,46,67,52,42,95,75,37,29.97,29.86,8,1,9,1.62
2013-3-23,84,72,65,75,69,64,96,90,73,29.94,29.77,9,2,11,0.00
2013-3-24,81,73,68,74,71,66,95,91,79,29.79,29.62,18,3,20,0.00
2013-3-25,68,62,57,66,50,39,94,67,43,30.04,29.72,17,6,21,0.00
2013-3-26,59,54,48,46,38,33,66,55,45,30.23,30.03,20,6,23,0.00
2013-3-27,57,49,42,41,36,30,84,60,42,30.30,30.19,13,-1,14,0.00
2013-3-28,68,56,44,46,39,32,89,58,27,30.27,30.18,11,2,12,0.00
2013-3-29,77,60,46,52,46,36,92,65,24,30.30,30.17,10,2,10,0.00
2013-3-30,80,64,49,57,51,44,93,69,31,30.23,30.11,12,1,12,0.00
2013-3-31,81,68,57,62,57,51,94,72,36,30.14,29.97,9,1,12,0.00